createdAt,value
2022-10-05T00:01:46.270Z,80.90
2022-10-05T00:04:15.852Z,81.56
2022-10-05T00:06:45.316Z,80.92
2022-10-05T00:09:16.882Z,81.70
2022-10-05T00:11:44.794Z,81.44
2022-10-05T00:14:20.769Z,81.74
2022-10-05T00:16:48.228Z,82.07
2022-10-05T00:19:31.147Z,83.47
2022-10-05T00:22:14.823Z,83.65
2022-10-05T00:24:42.977Z,83.90
2022-10-05T00:27:25.180Z,83.95
2022-10-05T00:29:54.217Z,83.79
2022-10-05T00:32:21.841Z,84.63
2022-10-05T00:34:49.313Z,84.72
2022-10-05T00:37:17.002Z,84.68
2022-10-05T00:39:44.296Z,85.37
2022-10-05T00:42:35.116Z,86.24
2022-10-05T00:45:09.246Z,86.62
2022-10-05T00:48:07.512Z,85.93
2022-10-05T00:50:40.593Z,86.63
2022-10-05T00:53:20.428Z,86.56
2022-10-05T00:56:23.202Z,86.36
2022-10-05T00:58:59.497Z,86.65
2022-10-05T01:01:59.562Z,86.73
2022-10-05T01:04:48.090Z,87.15
2022-10-05T01:07:22.124Z,87.24
2022-10-05T01:10:08.474Z,89.09
2022-10-05T01:13:07.927Z,88.25
2022-10-05T01:16:06.936Z,88.24
2022-10-05T01:18:45.710Z,87.41
2022-10-05T01:21:24.264Z,88.66
2022-10-05T01:24:28.424Z,88.64
2022-10-05T01:27:16.004Z,88.73
2022-10-05T01:30:11.162Z,89.46
2022-10-05T01:32:45.818Z,88.19
2022-10-05T01:35:22.249Z,89.43
2022-10-05T01:38:08.667Z,89.28
2022-10-05T01:40:48.522Z,90.63
2022-10-05T01:43:36.523Z,89.23
2022-10-05T01:46:09.978Z,88.85
2022-10-05T01:48:52.340Z,87.97
2022-10-05T01:51:20.673Z,87.25
2022-10-05T01:54:00.161Z,87.28
2022-10-05T01:56:40.039Z,87.82
2022-10-05T01:59:19.967Z,86.87
2022-10-05T02:01:55.473Z,88.23
2022-10-05T02:05:00.246Z,86.80
2022-10-05T02:07:22.410Z,88.21
2022-10-05T02:10:01.038Z,86.48
2022-10-05T02:12:31.643Z,85.79
2022-10-05T02:15:04.115Z,84.95
2022-10-05T02:17:36.789Z,84.03
2022-10-05T02:20:09.157Z,84.16
2022-10-05T02:22:47.294Z,83.47
2022-10-05T02:25:17.568Z,84.67
2022-10-05T02:27:54.065Z,84.76
2022-10-05T02:30:21.717Z,84.25
2022-10-05T02:32:58.650Z,83.95
2022-10-05T02:35:26.257Z,84.04
2022-10-05T02:38:08.872Z,83.63
2022-10-05T02:40:45.251Z,83.68
2022-10-05T02:43:40.187Z,82.87
2022-10-05T02:46:15.460Z,82.05
2022-10-05T02:49:18.515Z,81.70
2022-10-05T02:52:20.044Z,82.67
2022-10-05T02:55:10.670Z,83.40
2022-10-05T02:58:02.693Z,82.83
2022-10-05T03:00:34.620Z,82.53
2022-10-05T03:03:18.734Z,83.42
2022-10-05T03:06:05.817Z,84.07
2022-10-05T03:08:40.374Z,83.09
2022-10-05T03:11:13.574Z,82.61
2022-10-05T03:14:19.691Z,83.83
2022-10-05T03:17:07.032Z,86.42
2022-10-05T03:19:47.859Z,85.56
2022-10-05T03:22:21.376Z,85.68
2022-10-05T03:24:52.818Z,85.98
2022-10-05T03:27:20.240Z,84.90
2022-10-05T03:29:54.614Z,86.24
2022-10-05T03:32:40.239Z,84.43
2022-10-05T03:35:43.095Z,85.10
2022-10-05T03:38:31.960Z,85.27
2022-10-05T03:41:17.596Z,87.00
2022-10-05T03:44:16.003Z,85.08
2022-10-05T03:46:57.725Z,86.02
2022-10-05T03:49:57.911Z,85.41
2022-10-05T03:52:29.767Z,85.49
2022-10-05T03:55:02.964Z,85.95
2022-10-05T03:57:34.965Z,87.50
2022-10-05T04:00:09.161Z,86.26
2022-10-05T04:02:56.122Z,85.97
2022-10-05T04:05:28.898Z,89.18
2022-10-05T04:08:01.433Z,85.83
2022-10-05T04:10:41.579Z,87.37
2022-10-05T04:13:41.321Z,89.60
2022-10-05T04:16:14.408Z,87.82
2022-10-05T04:18:58.249Z,89.16
2022-10-05T04:21:31.172Z,87.85
2022-10-05T04:24:04.448Z,87.63
2022-10-05T04:26:40.875Z,86.79
2022-10-05T04:29:24.519Z,87.37
2022-10-05T04:32:15.596Z,86.55
2022-10-05T04:35:02.434Z,88.08
2022-10-05T04:38:00.836Z,86.58
2022-10-05T04:40:39.243Z,86.19
2022-10-05T04:43:15.311Z,85.97
2022-10-05T04:46:01.115Z,87.19
2022-10-05T04:49:06.195Z,86.56
2022-10-05T04:51:39.729Z,86.59
2022-10-05T04:54:25.009Z,87.66
2022-10-05T04:56:59.521Z,87.51
2022-10-05T04:59:46.279Z,87.14
2022-10-05T05:02:27.417Z,87.37
2022-10-05T05:05:32.427Z,88.00
2022-10-05T05:08:23.063Z,87.44
2022-10-05T05:11:16.756Z,86.29
2022-10-05T05:14:07.358Z,87.81
2022-10-05T05:16:40.553Z,89.01
2022-10-05T05:19:21.078Z,90.15
2022-10-05T05:22:07.379Z,91.07
2022-10-05T05:25:00.169Z,93.32
2022-10-05T05:27:36.384Z,93.56
2022-10-05T05:30:26.651Z,93.59
2022-10-05T05:32:58.946Z,91.95
2022-10-05T05:35:41.818Z,93.89
2022-10-05T05:38:18.991Z,92.63
2022-10-05T05:41:00.038Z,92.89
2022-10-05T05:43:48.220Z,90.35
2022-10-05T05:47:02.960Z,89.78
2022-10-05T05:49:51.360Z,90.43
2022-10-05T05:52:57.476Z,91.51
2022-10-05T05:55:30.642Z,90.54
2022-10-05T05:58:24.920Z,91.88
2022-10-05T06:01:31.678Z,91.57
2022-10-05T06:04:03.560Z,89.97
2022-10-05T06:06:33.025Z,91.47
2022-10-05T06:09:04.354Z,90.29
2022-10-05T06:11:50.663Z,89.56
2022-10-05T06:14:46.337Z,91.55
2022-10-05T06:17:26.782Z,90.79
2022-10-05T06:20:02.520Z,90.73
2022-10-05T06:22:36.144Z,89.80
2022-10-05T06:25:13.635Z,89.10
2022-10-05T06:28:10.147Z,87.26
2022-10-05T06:30:58.813Z,87.43
2022-10-05T06:33:53.664Z,87.84
2022-10-05T06:36:35.205Z,87.91
2022-10-05T06:39:09.705Z,86.87
2022-10-05T06:41:43.374Z,84.53
2022-10-05T06:44:17.014Z,88.25
2022-10-05T06:47:15.109Z,88.02
2022-10-05T06:50:38.434Z,86.54
2022-10-05T06:53:37.029Z,85.73
2022-10-05T06:56:08.802Z,85.14
2022-10-05T06:58:42.850Z,83.73
2022-10-05T07:01:33.302Z,85.09
2022-10-05T07:04:09.852Z,86.30
2022-10-05T07:06:37.720Z,86.56
2022-10-05T07:09:24.965Z,90.38
2022-10-05T07:12:11.138Z,90.25
2022-10-05T07:15:08.651Z,90.01
2022-10-05T07:17:45.623Z,86.08
2022-10-05T07:20:30.774Z,88.64
2022-10-05T07:23:10.251Z,88.11
2022-10-05T07:26:09.995Z,88.50
2022-10-05T07:28:48.755Z,86.34
2022-10-05T07:31:33.363Z,88.76
2022-10-05T07:34:41.203Z,88.35
2022-10-05T07:37:57.711Z,89.73
2022-10-05T07:40:33.441Z,87.96
2022-10-05T07:43:15.917Z,86.98
2022-10-05T07:45:51.645Z,84.67
2022-10-05T07:48:21.546Z,86.68
2022-10-05T07:50:58.918Z,85.56
2022-10-05T07:53:39.552Z,85.05
2022-10-05T07:56:35.338Z,84.09
2022-10-05T07:59:10.651Z,84.09
2022-10-05T08:01:42.176Z,83.67
2022-10-05T08:04:28.003Z,81.96
2022-10-05T08:07:05.319Z,80.99
2022-10-05T08:09:45.482Z,78.32
2022-10-05T08:12:37.391Z,79.88
2022-10-05T08:15:14.076Z,80.49
2022-10-05T08:18:00.475Z,80.74
2022-10-05T08:20:34.568Z,80.66
2022-10-05T08:23:08.807Z,79.70
2022-10-05T08:25:41.371Z,78.64
2022-10-05T08:28:15.554Z,79.31
2022-10-05T08:30:57.250Z,78.74
2022-10-05T08:33:25.875Z,78.72
2022-10-05T08:36:05.662Z,78.34
2022-10-05T08:38:33.734Z,78.01
2022-10-05T08:41:45.648Z,77.80
2022-10-05T08:44:46.168Z,76.71
2022-10-05T08:47:32.025Z,77.15
2022-10-05T08:50:17.369Z,78.52
2022-10-05T08:53:09.293Z,76.41
2022-10-05T08:55:36.504Z,76.96
2022-10-05T08:58:30.117Z,76.43
2022-10-05T09:01:13.127Z,77.45
2022-10-05T09:04:06.721Z,76.11
2022-10-05T09:07:02.230Z,77.14
2022-10-05T09:09:48.534Z,76.37
2022-10-05T09:12:34.529Z,74.60
2022-10-05T09:15:26.625Z,75.49
2022-10-05T09:18:21.875Z,75.35
2022-10-05T09:20:59.698Z,75.15
2022-10-05T09:23:39.664Z,75.25
2022-10-05T09:26:41.681Z,73.98
2022-10-05T09:29:12.085Z,73.45
2022-10-05T09:31:57.896Z,74.07
2022-10-05T09:34:56.102Z,73.60
2022-10-05T09:37:55.455Z,72.96
2022-10-05T09:40:41.788Z,72.89
2022-10-05T09:43:17.311Z,71.03
2022-10-05T09:46:23.347Z,70.91
2022-10-05T09:49:06.889Z,70.69
2022-10-05T09:52:13.928Z,71.63
2022-10-05T09:55:08.211Z,71.02
2022-10-05T09:58:03.826Z,71.38
2022-10-05T10:00:59.571Z,71.19
2022-10-05T10:03:58.532Z,71.06
2022-10-05T10:06:35.042Z,70.56
2022-10-05T10:09:08.067Z,70.48
2022-10-05T10:12:06.286Z,69.38
2022-10-05T10:14:39.503Z,69.51
2022-10-05T10:17:33.212Z,68.51
2022-10-05T10:20:28.055Z,68.28
2022-10-05T10:23:08.918Z,66.82
2022-10-05T10:25:48.303Z,65.40
2022-10-05T10:28:21.558Z,64.37
2022-10-05T10:31:25.177Z,66.99
2022-10-05T10:34:20.385Z,66.84
2022-10-05T10:36:59.659Z,65.38
2022-10-05T10:39:48.289Z,64.62
2022-10-05T10:42:33.831Z,63.55
2022-10-05T10:45:48.320Z,64.90
2022-10-05T10:48:18.631Z,64.60
2022-10-05T10:50:50.207Z,64.74
2022-10-05T10:53:48.409Z,65.07
2022-10-05T10:56:43.699Z,63.60
2022-10-05T10:59:48.653Z,64.70
2022-10-05T11:02:50.640Z,62.11
2022-10-05T11:05:50.333Z,63.01
2022-10-05T11:08:22.249Z,64.52
2022-10-05T11:11:14.422Z,64.00
2022-10-05T11:14:21.057Z,64.08
2022-10-05T11:17:00.650Z,64.51
2022-10-05T11:20:03.489Z,64.13
2022-10-05T11:23:04.197Z,65.38
2022-10-05T11:26:09.176Z,63.91
2022-10-05T11:29:13.856Z,63.89
2022-10-05T11:32:02.806Z,63.14
2022-10-05T11:34:55.077Z,64.17
2022-10-05T11:37:55.941Z,64.28
2022-10-05T11:41:02.204Z,63.87
2022-10-05T11:43:47.718Z,63.91
2022-10-05T11:46:16.202Z,63.74
2022-10-05T11:49:09.472Z,63.54
2022-10-05T11:51:42.691Z,63.26
2022-10-05T11:54:09.862Z,62.76
2022-10-05T11:56:43.252Z,62.00
2022-10-05T11:59:18.992Z,61.97
2022-10-05T12:02:39.985Z,61.88
2022-10-05T12:05:23.724Z,62.46
2022-10-05T12:08:20.918Z,62.23
2022-10-05T12:10:58.522Z,62.33
2022-10-05T12:13:53.947Z,62.34
2022-10-05T12:16:27.688Z,62.92
2022-10-05T12:19:04.676Z,62.48
2022-10-05T12:21:44.466Z,63.38
2022-10-05T12:24:22.192Z,62.01
2022-10-05T12:27:02.451Z,61.99
2022-10-05T12:30:08.241Z,62.44
2022-10-05T12:32:38.661Z,61.30
2022-10-05T12:35:14.967Z,61.33
2022-10-05T12:37:48.199Z,61.70
2022-10-05T12:40:33.853Z,61.13
2022-10-05T12:43:12.569Z,61.12
2022-10-05T12:45:43.593Z,60.96
2022-10-05T12:48:18.764Z,60.00
2022-10-05T12:50:51.265Z,60.01
2022-10-05T12:53:25.192Z,59.99
2022-10-05T12:56:30.617Z,58.95
2022-10-05T12:59:19.617Z,59.70
2022-10-05T13:02:09.254Z,59.87
2022-10-05T13:04:45.049Z,59.50
2022-10-05T13:07:21.665Z,59.25
2022-10-05T13:10:01.177Z,59.13
2022-10-05T13:12:41.309Z,58.61
2022-10-05T13:15:14.200Z,58.75
2022-10-05T13:17:48.793Z,58.16
2022-10-05T13:20:24.911Z,59.55
2022-10-05T13:22:59.457Z,59.72
2022-10-05T13:25:51.685Z,59.70
2022-10-05T13:28:42.076Z,58.74
2022-10-05T13:31:13.683Z,59.42
2022-10-05T13:33:43.854Z,58.89
2022-10-05T13:36:18.930Z,59.28
2022-10-05T13:38:56.853Z,59.78
2022-10-05T13:41:54.468Z,59.04
2022-10-05T13:44:27.253Z,59.07
2022-10-05T13:47:02.268Z,58.87
2022-10-05T13:49:38.774Z,59.04
2022-10-05T13:53:00.433Z,58.78
2022-10-05T13:55:34.289Z,59.53
2022-10-05T13:58:22.810Z,58.72
2022-10-05T14:00:53.527Z,59.17
2022-10-05T14:03:38.845Z,58.64
2022-10-05T14:06:13.087Z,59.03
2022-10-05T14:08:49.312Z,58.55
2022-10-05T14:11:31.871Z,58.29
2022-10-05T14:14:17.815Z,57.82
2022-10-05T14:16:54.286Z,58.51
2022-10-05T14:19:27.043Z,58.45
2022-10-05T14:22:02.854Z,57.28
2022-10-05T14:24:43.800Z,57.88
2022-10-05T14:27:22.618Z,57.12
2022-10-05T14:30:00.899Z,58.33
2022-10-05T14:32:32.968Z,59.10
2022-10-05T14:35:05.114Z,59.75
2022-10-05T14:37:43.317Z,58.98
2022-10-05T14:40:34.489Z,59.49
2022-10-05T14:43:14.440Z,59.37
2022-10-05T14:46:25.152Z,59.55
2022-10-05T14:49:17.205Z,59.36
2022-10-05T14:51:44.729Z,59.66
2022-10-05T14:54:36.207Z,58.83
2022-10-05T14:57:47.101Z,58.22
2022-10-05T15:00:18.795Z,58.15
2022-10-05T15:03:17.440Z,57.92
2022-10-05T15:05:54.041Z,58.45
2022-10-05T15:08:45.101Z,58.66
2022-10-05T15:11:44.176Z,58.44
2022-10-05T15:14:23.927Z,58.30
2022-10-05T15:16:58.215Z,58.48
2022-10-05T15:19:48.612Z,58.63
2022-10-05T15:22:49.813Z,57.89
2022-10-05T15:25:27.815Z,57.79
2022-10-05T15:28:13.338Z,57.54
2022-10-05T15:30:47.823Z,57.75
2022-10-05T15:33:28.896Z,56.92
2022-10-05T15:36:11.909Z,57.84
2022-10-05T15:38:44.153Z,58.16
2022-10-05T15:41:28.023Z,57.86
2022-10-05T15:44:14.696Z,58.65
2022-10-05T15:46:58.412Z,58.47
2022-10-05T15:49:50.375Z,59.14
2022-10-05T15:52:30.389Z,60.11
2022-10-05T15:55:19.925Z,59.81
2022-10-05T15:58:31.376Z,60.44
2022-10-05T16:01:06.157Z,59.91
2022-10-05T16:03:45.182Z,59.60
2022-10-05T16:06:43.157Z,60.38
2022-10-05T16:09:33.059Z,61.49
2022-10-05T16:12:12.915Z,61.44
2022-10-05T16:14:54.525Z,61.76
2022-10-05T16:18:07.449Z,61.27
2022-10-05T16:20:50.090Z,61.37
2022-10-05T16:23:59.042Z,61.42
2022-10-05T16:26:35.218Z,60.92
2022-10-05T16:29:13.375Z,60.70
2022-10-05T16:31:54.303Z,60.22
2022-10-05T16:34:40.558Z,60.28
2022-10-05T16:37:09.729Z,61.00
2022-10-05T16:39:46.506Z,61.18
2022-10-05T16:42:29.678Z,61.17
2022-10-05T16:45:08.154Z,61.66
2022-10-05T16:47:57.137Z,61.68
2022-10-05T16:50:38.452Z,62.12
2022-10-05T16:53:23.647Z,62.16
2022-10-05T16:56:01.831Z,62.60
2022-10-05T16:58:34.917Z,62.03
2022-10-05T17:01:10.900Z,62.16
2022-10-05T17:04:05.551Z,61.87
2022-10-05T17:07:08.330Z,62.93
2022-10-05T17:09:45.802Z,63.27
2022-10-05T17:12:29.363Z,63.27
2022-10-05T17:15:19.637Z,62.90
2022-10-05T17:17:51.720Z,62.57
2022-10-05T17:21:00.769Z,63.16
2022-10-05T17:23:53.415Z,62.92
2022-10-05T17:26:45.178Z,62.28
2022-10-05T17:29:51.853Z,64.12
2022-10-05T17:32:19.146Z,64.23
2022-10-05T17:35:01.475Z,64.12
2022-10-05T17:37:43.629Z,64.06
2022-10-05T17:40:29.324Z,64.04
2022-10-05T17:43:02.322Z,64.08
2022-10-05T17:45:29.747Z,64.80
2022-10-05T17:47:56.888Z,65.00
2022-10-05T17:51:02.451Z,65.36
2022-10-05T17:54:03.710Z,64.38
2022-10-05T17:56:46.778Z,65.54
2022-10-05T17:59:45.799Z,65.89
2022-10-05T18:02:26.697Z,66.27
2022-10-05T18:05:12.384Z,66.92
2022-10-05T18:07:41.036Z,67.07
2022-10-05T18:10:17.360Z,67.12
2022-10-05T18:12:46.111Z,66.57
2022-10-05T18:15:24.066Z,66.19
2022-10-05T18:18:32.434Z,65.89
2022-10-05T18:21:14.912Z,66.53
2022-10-05T18:23:52.553Z,66.19
2022-10-05T18:26:43.635Z,65.50
2022-10-05T18:30:02.582Z,65.37
2022-10-05T18:32:35.525Z,66.26
2022-10-05T18:35:40.255Z,66.43
2022-10-05T18:38:41.842Z,67.53
2022-10-05T18:41:32.019Z,67.82
2022-10-05T18:44:14.416Z,65.81
2022-10-05T18:46:44.408Z,65.29
2022-10-05T18:49:30.097Z,66.08
2022-10-05T18:52:07.446Z,66.05
2022-10-05T18:54:50.147Z,66.04
2022-10-05T18:57:20.524Z,66.39
2022-10-05T18:59:57.576Z,67.43
2022-10-05T19:02:34.182Z,73.32
2022-10-05T19:05:46.410Z,78.61
2022-10-05T19:08:21.737Z,83.90
2022-10-05T19:10:55.907Z,87.01
2022-10-05T19:13:37.969Z,87.33
2022-10-05T19:16:37.269Z,86.94
2022-10-05T19:19:30.832Z,85.72
2022-10-05T19:22:19.720Z,84.40
2022-10-05T19:25:21.834Z,85.79
2022-10-05T19:28:13.513Z,84.55
2022-10-05T19:31:01.199Z,84.40
2022-10-05T19:33:33.536Z,83.70
2022-10-05T19:36:22.212Z,83.73
2022-10-05T19:39:15.195Z,79.13
2022-10-05T19:42:12.347Z,79.97
2022-10-05T19:45:18.658Z,77.83
2022-10-05T19:47:48.779Z,76.93
2022-10-05T19:50:27.795Z,75.56
2022-10-05T19:53:08.198Z,75.67
2022-10-05T19:55:41.685Z,76.22
2022-10-05T19:58:27.165Z,75.43
2022-10-05T20:01:00.421Z,77.88
2022-10-05T20:03:31.618Z,75.92
2022-10-05T20:06:01.105Z,73.47
2022-10-05T20:08:43.963Z,74.92
2022-10-05T20:11:13.720Z,76.64
2022-10-05T20:13:44.530Z,77.75
2022-10-05T20:19:46.789Z,75.79
2022-10-05T20:22:36.070Z,74.83
2022-10-05T20:25:06.350Z,74.60
2022-10-05T20:27:52.591Z,73.30
2022-10-05T20:30:34.229Z,73.14
2022-10-05T20:33:03.087Z,75.75
2022-10-05T20:35:30.710Z,74.73
2022-10-05T20:37:59.452Z,74.67
2022-10-05T20:40:29.103Z,73.26
2022-10-05T20:42:57.546Z,76.07
2022-10-05T20:45:25.103Z,75.87
2022-10-05T20:47:52.509Z,75.08
2022-10-05T20:50:22.844Z,74.55
2022-10-05T20:52:50.007Z,74.88
2022-10-05T20:55:17.215Z,75.66
2022-10-05T20:57:46.093Z,73.51
2022-10-05T21:00:13.748Z,76.07
2022-10-05T21:02:41.101Z,74.43
2022-10-05T21:05:08.836Z,76.11
2022-10-05T21:07:36.179Z,75.75
2022-10-05T21:10:10.184Z,75.87
2022-10-05T21:12:41.078Z,75.81
2022-10-05T21:15:10.448Z,74.93
2022-10-05T21:17:38.054Z,75.27
2022-10-05T21:20:05.812Z,75.87
2022-10-05T21:22:33.077Z,76.23
2022-10-05T21:25:00.471Z,78.40
2022-10-05T21:27:28.242Z,74.55
2022-10-05T21:29:55.570Z,75.71
2022-10-05T21:32:22.824Z,75.99
2022-10-05T21:34:50.132Z,75.14
2022-10-05T21:37:18.110Z,74.99
2022-10-05T21:39:45.778Z,75.95
2022-10-05T21:42:13.340Z,75.45
2022-10-05T21:44:41.628Z,77.64
2022-10-05T21:47:09.663Z,74.61
2022-10-05T21:49:37.686Z,76.83
2022-10-05T21:52:05.451Z,74.54
2022-10-05T21:54:33.387Z,75.21
2022-10-05T21:57:00.945Z,76.37
2022-10-05T21:59:32.086Z,76.36
2022-10-05T22:01:59.354Z,76.72
2022-10-05T22:04:26.813Z,75.67
2022-10-05T22:06:55.007Z,77.47
2022-10-05T22:09:22.204Z,75.97
2022-10-05T22:11:49.615Z,73.89
2022-10-05T22:14:16.991Z,74.94
2022-10-05T22:16:44.981Z,73.44
2022-10-05T22:19:17.880Z,74.17
2022-10-05T22:21:45.143Z,74.12
2022-10-05T22:24:12.461Z,74.10
2022-10-05T22:26:41.266Z,74.16
2022-10-05T22:29:09.640Z,73.66
2022-10-05T22:31:37.250Z,73.52
2022-10-05T22:34:04.784Z,76.82
2022-10-05T22:36:34.915Z,73.73
2022-10-05T22:39:02.412Z,73.62
2022-10-05T22:41:29.713Z,74.63
2022-10-05T22:43:57.030Z,75.24
2022-10-05T22:46:24.554Z,75.41
2022-10-05T22:48:51.849Z,76.42
2022-10-05T22:51:19.137Z,75.48
2022-10-05T22:53:46.463Z,75.50
2022-10-05T22:56:14.467Z,75.77
2022-10-05T22:58:43.004Z,76.58
2022-10-05T23:01:13.269Z,75.50
2022-10-05T23:03:40.631Z,77.70
2022-10-05T23:06:18.193Z,76.12
2022-10-05T23:08:46.036Z,77.08
2022-10-05T23:11:14.636Z,78.14
2022-10-05T23:13:42.448Z,74.90
2022-10-05T23:16:12.244Z,74.56
2022-10-05T23:18:40.150Z,75.67
2022-10-05T23:21:08.613Z,76.37
2022-10-05T23:23:40.805Z,77.34
2022-10-05T23:26:10.028Z,77.33
2022-10-05T23:28:39.549Z,75.40
2022-10-05T23:31:08.043Z,74.87
2022-10-05T23:33:35.480Z,76.20
2022-10-05T23:36:11.851Z,76.53
2022-10-05T23:38:39.090Z,76.50
2022-10-05T23:41:07.478Z,75.08
2022-10-05T23:43:35.566Z,77.17
2022-10-05T23:46:04.364Z,75.84
2022-10-05T23:48:32.302Z,75.75
2022-10-05T23:51:00.241Z,78.03
2022-10-05T23:53:27.494Z,78.48
2022-10-05T23:55:55.139Z,77.16
2022-10-05T23:58:23.282Z,76.30
